Time;durP1;ratioP1;P1;durP2;ratioP2;P2;SDS_P1;SDS_P2;PMS_P1;PMS_P2;Temp;Humidity;BMP_temperature;BMP_pressure;BME280_temperature;BME280_humidity;BME280_pressure;Samples;Min_cycle;Max_cycle;Signal;HPM_P1;HPM_P2
2022/07/06 00:01:29;;;;;;;4.13;2.60;;;21.20;99.90;;;;;;4998707;28;20241;-96
2022/07/06 00:04:16;;;;;;;2.83;2.60;;;21.20;99.90;;;;;;4997538;28;20671;-96
2022/07/06 00:06:50;;;;;;;2.57;2.37;;;21.20;99.90;;;;;;4999270;28;20245;-96
2022/07/06 00:09:22;;;;;;;2.97;2.67;;;21.30;99.90;;;;;;4998358;28;20222;-96
2022/07/06 00:11:55;;;;;;;2.90;2.30;;;21.30;99.90;;;;;;4997538;28;20602;-96
2022/07/06 00:14:31;;;;;;;2.87;2.40;;;21.20;99.90;;;;;;4997786;28;20214;-96
2022/07/06 00:17:02;;;;;;;2.80;2.50;;;21.10;99.90;;;;;;4999304;28;20220;-96
2022/07/06 00:19:34;;;;;;;3.10;2.60;;;21.00;99.90;;;;;;4997695;28;20202;-96
2022/07/06 00:22:06;;;;;;;3.00;2.70;;;21.10;99.90;;;;;;4996620;28;20234;-96
2022/07/06 00:24:38;;;;;;;3.70;2.90;;;21.00;99.90;;;;;;5000089;28;20218;-96
2022/07/06 00:27:09;;;;;;;3.23;2.77;;;21.10;99.90;;;;;;5000965;28;20230;-96
2022/07/06 00:29:45;;;;;;;8.63;3.50;;;21.10;99.90;;;;;;4998617;28;20276;-96
2022/07/06 00:32:17;;;;;;;3.03;2.73;;;21.00;99.90;;;;;;4999200;28;20237;-96
2022/07/06 00:34:48;;;;;;;3.90;2.97;;;21.10;99.90;;;;;;4999436;28;20215;-96
2022/07/06 00:37:20;;;;;;;3.03;2.73;;;21.20;99.90;;;;;;5005408;28;20655;-96
2022/07/06 00:39:57;;;;;;;4.03;3.40;;;21.40;99.90;;;;;;4999880;28;20655;-96
2022/07/06 00:42:29;;;;;;;5.17;3.10;;;21.30;99.90;;;;;;5003308;28;20268;-95
2022/07/06 00:45:02;;;;;;;2.93;2.73;;;21.30;99.90;;;;;;5008399;28;20218;-96
2022/07/06 00:47:34;;;;;;;2.80;2.60;;;21.30;99.90;;;;;;5001018;28;20218;-96
2022/07/06 00:50:17;;;;;;;2.40;2.20;;;21.30;99.90;;;;;;5005504;28;20233;-96
2022/07/06 00:52:51;;;;;;;2.93;2.53;;;21.40;99.90;;;;;;4999726;28;20214;-96
2022/07/06 00:55:30;;;;;;;3.20;2.90;;;21.50;99.90;;;;;;4999775;28;20217;-96
2022/07/06 00:58:03;;;;;;;4.57;2.93;;;21.60;99.90;;;;;;4978248;28;20215;-96
2022/07/06 01:00:38;;;;;;;4.57;3.20;;;21.70;99.90;;;;;;4980512;28;20238;-96
2022/07/06 01:03:09;;;;;;;4.77;3.10;;;21.80;99.90;;;;;;4983154;28;20230;-96
2022/07/06 01:05:41;;;;;;;2.87;2.43;;;22.00;99.90;;;;;;4983379;28;20302;-96
2022/07/06 01:08:15;;;;;;;4.60;3.07;;;22.00;99.90;;;;;;4992701;28;20230;-96
2022/07/06 01:10:49;;;;;;;3.20;2.87;;;22.20;99.90;;;;;;5011989;28;20232;-96
2022/07/06 01:13:21;;;;;;;3.20;2.67;;;22.30;99.90;;;;;;5014807;28;20210;-96
2022/07/06 01:15:56;;;;;;;3.43;2.87;;;22.40;99.90;;;;;;5011837;28;20261;-96
2022/07/06 01:18:29;;;;;;;3.10;2.80;;;22.40;99.90;;;;;;5009997;28;20262;-96
2022/07/06 01:21:17;;;;;;;3.67;3.30;;;22.50;99.90;;;;;;5003190;28;20206;-96
2022/07/06 01:23:49;;;;;;;3.97;3.33;;;22.40;99.90;;;;;;5000386;28;20246;-96
2022/07/06 01:26:23;;;;;;;4.87;3.63;;;22.40;99.90;;;;;;5001483;28;20211;-96
2022/07/06 01:28:55;;;;;;;5.07;3.50;;;22.30;99.90;;;;;;4999252;28;20202;-96
2022/07/06 01:31:27;;;;;;;3.80;3.50;;;22.30;99.90;;;;;;4996340;28;20293;-96
2022/07/06 01:33:59;;;;;;;3.90;3.47;;;22.20;99.90;;;;;;4997546;28;20233;-96
2022/07/06 01:37:01;;;;;;;3.83;3.30;;;22.10;99.90;;;;;;4997155;28;20207;-96
2022/07/06 01:39:47;;;;;;;4.17;3.30;;;22.00;99.90;;;;;;4998567;28;20237;-96
2022/07/06 01:42:18;;;;;;;4.07;3.40;;;21.70;99.90;;;;;;4995641;28;20234;-96
2022/07/06 01:44:50;;;;;;;3.73;3.17;;;21.60;99.90;;;;;;5001413;28;20222;-96
2022/07/06 01:47:27;;;;;;;4.83;3.10;;;21.60;99.90;;;;;;5000954;28;20220;-96
2022/07/06 01:50:01;;;;;;;3.70;3.33;;;21.40;99.90;;;;;;5000367;28;20210;-96
2022/07/06 01:52:33;;;;;;;4.70;3.43;;;21.30;99.90;;;;;;5000113;28;20310;-96
2022/07/06 01:55:10;;;;;;;4.30;3.47;;;21.30;99.90;;;;;;5000797;28;20217;-96
2022/07/06 01:57:42;;;;;;;4.63;3.27;;;21.20;99.90;;;;;;5001184;28;20210;-96
2022/07/06 02:00:14;;;;;;;4.00;3.60;;;21.20;99.90;;;;;;4999545;28;20242;-96
2022/07/06 02:02:48;;;;;;;3.43;3.13;;;21.20;99.90;;;;;;4983216;28;20238;-96
2022/07/06 02:05:20;;;;;;;3.43;3.13;;;21.10;99.90;;;;;;5000108;28;20226;-96
2022/07/06 02:07:51;;;;;;;3.70;3.33;;;20.90;99.90;;;;;;4999427;28;20218;-96
2022/07/06 02:10:26;;;;;;;7.23;3.77;;;20.80;99.90;;;;;;5000580;28;20264;-96
2022/07/06 02:13:00;;;;;;;3.90;3.60;;;20.80;99.90;;;;;;5000731;28;20263;-96
2022/07/06 02:15:33;;;;;;;4.30;3.73;;;20.70;99.90;;;;;;5002223;28;20277;-96
2022/07/06 02:18:04;;;;;;;4.13;3.77;;;20.60;99.90;;;;;;5000603;28;20277;-96
2022/07/06 02:20:40;;;;;;;4.90;3.53;;;20.60;99.90;;;;;;5002123;28;20265;-96
2022/07/06 02:28:56;;;;;;;6.50;4.13;;;20.10;99.90;;;;;;5002261;28;20265;-96
2022/07/06 02:31:29;;;;;;;5.80;4.33;;;20.00;99.90;;;;;;5005106;28;20214;-96
2022/07/06 02:34:00;;;;;;;5.07;4.50;;;19.90;99.90;;;;;;5012377;28;20304;-96
2022/07/06 02:36:32;;;;;;;7.20;4.50;;;19.80;99.90;;;;;;5007596;28;20261;-96
2022/07/06 02:39:04;;;;;;;5.40;4.40;;;19.70;99.90;;;;;;5006195;28;20218;-96
2022/07/06 02:41:39;;;;;;;7.77;5.10;;;19.60;99.90;;;;;;5003731;28;20206;-96
2022/07/06 02:44:13;;;;;;;6.60;4.80;;;19.40;99.90;;;;;;5000016;28;20246;-96
2022/07/06 02:46:49;;;;;;;6.77;4.73;;;19.30;99.90;;;;;;4999813;28;20218;-96
2022/07/06 02:49:19;;;;;;;7.23;5.23;;;19.20;99.90;;;;;;5000536;28;20213;-96
2022/07/06 02:51:53;;;;;;;8.50;5.20;;;19.10;99.90;;;;;;4999761;28;20217;-96
2022/07/06 02:54:26;;;;;;;5.20;4.70;;;19.00;99.90;;;;;;5000740;28;20218;-96
2022/07/06 02:57:02;;;;;;;6.00;4.90;;;18.90;99.90;;;;;;4999540;28;20206;-96
2022/07/06 02:59:34;;;;;;;5.30;4.30;;;18.90;99.90;;;;;;4999083;28;20225;-96
2022/07/06 03:02:05;;;;;;;6.17;4.70;;;18.90;99.90;;;;;;4999366;28;20237;-96
2022/07/06 03:04:45;;;;;;;7.80;5.50;;;18.90;99.90;;;;;;4999767;28;20652;-96
2022/07/06 03:07:17;;;;;;;6.23;5.30;;;18.90;99.90;;;;;;4999555;28;20217;-96
2022/07/06 03:09:49;;;;;;;6.50;5.90;;;18.90;99.90;;;;;;4998813;28;20263;-96
2022/07/06 03:12:22;;;;;;;6.47;5.30;;;18.90;99.90;;;;;;4998191;28;20203;-96
2022/07/06 03:14:58;;;;;;;6.47;5.40;;;18.80;99.90;;;;;;4999057;28;20225;-96
2022/07/06 03:17:29;;;;;;;6.27;5.67;;;18.90;99.90;;;;;;4999071;28;20369;-96
2022/07/06 03:20:03;;;;;;;6.67;5.53;;;18.80;99.90;;;;;;4997729;28;20222;-96
2022/07/06 03:22:34;;;;;;;8.27;5.80;;;18.70;99.90;;;;;;4999105;28;20256;-96
2022/07/06 03:25:07;;;;;;;6.50;5.80;;;18.70;99.90;;;;;;4981904;28;20599;-96
2022/07/06 03:27:41;;;;;;;7.00;5.60;;;18.60;99.90;;;;;;4998827;28;20214;-96
2022/07/06 03:30:27;;;;;;;6.27;5.60;;;18.60;99.90;;;;;;4999897;28;20218;-96
2022/07/06 03:32:58;;;;;;;8.40;5.90;;;18.60;99.90;;;;;;5005070;28;20240;-96
2022/07/06 03:35:42;;;;;;;10.00;6.07;;;18.60;99.90;;;;;;5001992;28;20237;-96
2022/07/06 03:38:36;;;;;;;9.80;5.60;;;18.40;99.90;;;;;;5009997;28;20206;-96
2022/07/06 03:41:08;;;;;;;6.00;5.40;;;18.30;99.90;;;;;;5003464;28;20214;-96
2022/07/06 03:43:42;;;;;;;8.90;5.77;;;18.30;99.90;;;;;;5004921;28;20292;-96
2022/07/06 03:46:16;;;;;;;6.70;5.43;;;18.20;99.90;;;;;;5002011;28;20272;-96
2022/07/06 03:48:48;;;;;;;8.53;5.63;;;18.20;99.90;;;;;;4998811;28;20225;-96
2022/07/06 03:51:19;;;;;;;6.47;5.70;;;18.20;99.90;;;;;;4998216;28;20257;-96
2022/07/06 03:53:54;;;;;;;5.87;5.27;;;18.20;99.90;;;;;;5000608;28;20217;-96
2022/07/06 03:56:38;;;;;;;5.83;4.67;;;18.30;99.90;;;;;;5000155;28;20213;-96
2022/07/06 03:59:16;;;;;;;9.67;5.50;;;18.30;99.90;;;;;;5001287;28;20222;-96
2022/07/06 04:01:52;;;;;;;7.10;5.57;;;18.20;99.90;;;;;;4999969;28;20206;-96
2022/07/06 04:04:27;;;;;;;8.03;5.97;;;18.20;99.90;;;;;;4999895;28;20237;-96
2022/07/06 04:06:59;;;;;;;6.40;5.63;;;18.10;99.90;;;;;;4998099;28;20265;-96
2022/07/06 04:09:33;;;;;;;6.70;5.77;;;18.10;99.90;;;;;;4999043;28;20208;-96
2022/07/06 04:12:07;;;;;;;6.17;5.57;;;18.10;99.90;;;;;;5001254;28;20214;-96
2022/07/06 04:14:41;;;;;;;5.60;5.10;;;18.10;99.90;;;;;;5007030;28;20233;-96
2022/07/06 04:20:02;;;;;;;7.23;5.63;;;18.00;99.90;;;;;;5016567;28;20460;-95
2022/07/06 04:22:35;;;;;;;6.63;5.43;;;18.00;99.90;;;;;;5016811;28;20205;-96
2022/07/06 04:25:07;;;;;;;6.20;5.20;;;18.10;99.90;;;;;;5015402;28;20261;-96
2022/07/06 04:27:38;;;;;;;6.30;5.50;;;18.00;99.90;;;;;;5003604;28;20221;-96
2022/07/06 04:30:13;;;;;;;6.13;5.33;;;17.90;99.90;;;;;;4999656;28;20715;-96
2022/07/06 04:32:44;;;;;;;7.33;5.67;;;17.80;99.90;;;;;;4999355;28;20213;-96
2022/07/06 04:35:18;;;;;;;6.53;5.67;;;17.80;99.90;;;;;;4998825;28;20213;-96
2022/07/06 04:37:49;;;;;;;6.73;5.73;;;17.70;99.90;;;;;;4999080;28;20241;-96
2022/07/06 04:40:20;;;;;;;7.63;6.10;;;17.80;99.90;;;;;;4996936;28;20288;-96
2022/07/06 04:42:52;;;;;;;6.50;5.10;;;17.90;99.90;;;;;;4997200;28;20229;-96
2022/07/06 04:45:27;;;;;;;8.30;6.00;;;17.80;99.90;;;;;;5000520;28;20229;-96
2022/07/06 04:47:58;;;;;;;7.30;5.90;;;17.80;99.90;;;;;;4999256;28;20285;-96
2022/07/06 04:50:31;;;;;;;6.20;5.60;;;17.70;99.90;;;;;;4997410;28;20218;-96
2022/07/06 04:53:08;;;;;;;7.20;6.37;;;17.70;99.90;;;;;;4997482;28;20228;-96
2022/07/06 04:55:40;;;;;;;9.27;6.30;;;17.70;99.90;;;;;;4997662;28;20876;-96
2022/07/06 04:58:11;;;;;;;6.47;5.70;;;17.70;99.90;;;;;;4997702;28;20247;-96
2022/07/06 05:00:45;;;;;;;8.27;5.90;;;17.70;99.90;;;;;;4997831;28;20214;-96
2022/07/06 05:03:16;;;;;;;6.43;5.27;;;17.70;99.90;;;;;;4998060;28;20300;-96
2022/07/06 05:05:51;;;;;;;7.00;6.10;;;17.60;99.90;;;;;;4998111;28;20233;-96
2022/07/06 05:08:23;;;;;;;6.17;5.30;;;17.70;99.90;;;;;;4981599;28;20221;-95
2022/07/06 05:10:56;;;;;;;6.43;5.53;;;17.70;99.90;;;;;;4997536;28;20596;-95
2022/07/06 05:13:28;;;;;;;6.47;5.27;;;17.70;99.90;;;;;;4998539;28;20215;-96
2022/07/06 05:16:05;;;;;;;7.60;5.37;;;17.70;99.90;;;;;;4998843;28;20250;-96
2022/07/06 05:18:36;;;;;;;6.57;5.80;;;17.70;99.90;;;;;;5000675;28;20225;-96
2022/07/06 05:21:08;;;;;;;6.00;5.10;;;17.70;99.90;;;;;;5001556;28;20210;-95
2022/07/06 05:23:40;;;;;;;7.07;5.13;;;17.60;99.90;;;;;;5005264;28;20241;-96
2022/07/06 05:26:11;;;;;;;6.50;5.80;;;17.50;99.90;;;;;;5016585;28;20206;-96
2022/07/06 05:28:45;;;;;;;7.17;5.17;;;17.40;99.90;;;;;;5019615;28;20206;-96
2022/07/06 05:31:25;;;;;;;7.90;5.30;;;17.30;99.90;;;;;;5018725;28;20202;-95
2022/07/06 05:33:58;;;;;;;6.73;5.63;;;17.30;99.90;;;;;;5019376;28;20261;-95
2022/07/06 05:36:30;;;;;;;6.17;5.10;;;17.30;99.90;;;;;;5019754;28;20198;-96
2022/07/06 05:39:02;;;;;;;6.13;5.50;;;17.30;99.90;;;;;;5019697;28;20764;-96
2022/07/06 05:41:35;;;;;;;5.80;5.20;;;17.30;99.90;;;;;;5006083;28;20214;-96
2022/07/06 05:44:06;;;;;;;8.30;5.27;;;17.30;99.90;;;;;;5004957;28;20238;-96
2022/07/06 05:46:41;;;;;;;5.43;4.93;;;17.40;99.90;;;;;;5003462;28;20218;-96
2022/07/06 05:52:03;;;;;;;6.57;5.20;;;17.40;99.90;;;;;;5003006;28;20214;-96
2022/07/06 05:54:35;;;;;;;6.47;5.00;;;17.30;99.90;;;;;;5005620;28;20219;-96
2022/07/06 05:57:10;;;;;;;7.40;5.10;;;17.30;99.90;;;;;;5005690;28;20210;-95
2022/07/06 05:59:43;;;;;;;5.57;4.80;;;17.30;99.90;;;;;;5005772;28;20194;-96
2022/07/06 06:02:16;;;;;;;7.00;5.00;;;17.30;99.90;;;;;;4987348;28;20206;-96
2022/07/06 06:04:47;;;;;;;6.20;5.60;;;17.40;99.90;;;;;;5006102;28;20242;-96
2022/07/06 06:07:19;;;;;;;5.30;4.80;;;17.40;99.90;;;;;;5007383;28;20226;-96
2022/07/06 06:09:50;;;;;;;5.80;5.20;;;17.30;99.90;;;;;;5006778;28;20206;-96
2022/07/06 06:12:22;;;;;;;7.70;4.93;;;17.30;99.90;;;;;;5005571;28;20210;-96
2022/07/06 06:14:54;;;;;;;6.30;5.30;;;17.30;99.90;;;;;;5005622;28;20221;-96
2022/07/06 06:17:28;;;;;;;7.73;5.27;;;17.20;99.90;;;;;;5013144;28;20243;-96
2022/07/06 06:20:03;;;;;;;5.90;5.23;;;17.20;99.90;;;;;;5006049;28;20272;-96
2022/07/06 06:22:45;;;;;;;6.03;4.83;;;17.20;99.90;;;;;;5003876;28;20217;-96
2022/07/06 06:25:18;;;;;;;5.80;5.13;;;17.30;99.90;;;;;;5004800;28;20230;-96
2022/07/06 06:27:50;;;;;;;5.47;4.97;;;17.30;99.90;;;;;;5007930;28;20285;-96
2022/07/06 06:30:24;;;;;;;6.57;4.93;;;17.30;99.90;;;;;;4997270;28;20242;-96
2022/07/06 06:33:09;;;;;;;6.20;5.03;;;17.30;99.90;;;;;;5004921;28;20222;-96
2022/07/06 06:35:43;;;;;;;6.33;5.57;;;17.20;99.90;;;;;;5009945;28;20229;-96
2022/07/06 06:38:17;;;;;;;7.83;5.90;;;17.20;99.90;;;;;;5008111;28;20272;-96
2022/07/06 06:40:48;;;;;;;6.70;4.90;;;17.30;99.90;;;;;;5001635;28;20264;-96
2022/07/06 06:43:21;;;;;;;6.53;5.60;;;17.40;99.90;;;;;;5001947;28;20702;-96
2022/07/06 06:45:52;;;;;;;8.10;5.60;;;17.40;99.90;;;;;;5001825;28;20678;-96
2022/07/06 06:48:31;;;;;;;6.83;6.13;;;17.30;99.90;;;;;;5001339;28;20206;-96
2022/07/06 06:51:03;;;;;;;7.07;6.37;;;17.30;99.90;;;;;;5000101;28;20217;-96
2022/07/06 06:53:34;;;;;;;6.83;6.13;;;17.20;99.90;;;;;;5001246;28;20284;-96
2022/07/06 06:56:10;;;;;;;8.07;7.27;;;17.20;99.90;;;;;;5000751;28;20240;-96
2022/07/06 06:58:43;;;;;;;7.20;6.33;;;17.30;99.90;;;;;;5001089;28;20210;-96
2022/07/06 07:01:37;;;;;;;8.20;6.27;;;17.30;99.90;;;;;;4999867;28;20238;-96
2022/07/06 07:04:11;;;;;;;7.40;6.53;;;17.30;99.90;;;;;;5000520;28;20219;-96
2022/07/06 07:06:43;;;;;;;6.93;5.77;;;17.20;99.90;;;;;;5000147;28;20567;-96
2022/07/06 07:09:15;;;;;;;7.80;7.00;;;17.20;99.90;;;;;;4983451;28;20230;-96
2022/07/06 07:11:47;;;;;;;9.80;8.00;;;17.10;99.90;;;;;;5002119;28;20253;-96
2022/07/06 07:14:18;;;;;;;9.30;8.37;;;17.10;99.90;;;;;;5002475;28;20206;-96
2022/07/06 07:16:51;;;;;;;9.70;8.33;;;17.10;99.90;;;;;;5004328;28;20202;-96
2022/07/06 07:19:24;;;;;;;10.13;8.67;;;17.10;99.90;;;;;;5001936;28;20264;-96
2022/07/06 07:21:55;;;;;;;9.30;7.63;;;17.00;99.90;;;;;;5001509;28;20245;-96
2022/07/06 07:24:28;;;;;;;9.10;8.20;;;16.90;99.90;;;;;;5005502;28;20219;-96
2022/07/06 07:26:59;;;;;;;8.70;7.80;;;16.90;99.90;;;;;;5000340;28;20210;-96
2022/07/06 07:29:32;;;;;;;9.07;7.57;;;16.90;99.90;;;;;;4998289;28;20234;-96
2022/07/06 07:32:05;;;;;;;8.37;7.33;;;17.10;99.90;;;;;;4998456;28;20237;-96
2022/07/06 07:34:40;;;;;;;8.70;7.63;;;17.00;99.90;;;;;;4999656;28;20207;-96
2022/07/06 07:37:12;;;;;;;9.27;7.40;;;16.90;99.90;;;;;;4999541;28;20210;-96
2022/07/06 07:39:43;;;;;;;7.70;6.83;;;16.90;99.90;;;;;;4997902;28;20206;-96
2022/07/06 07:42:16;;;;;;;7.67;6.87;;;16.90;99.90;;;;;;4996425;28;20274;-96
2022/07/06 07:44:47;;;;;;;11.37;7.03;;;16.90;99.90;;;;;;4999313;28;20230;-96
2022/07/06 07:47:20;;;;;;;9.60;7.90;;;16.90;99.90;;;;;;4999726;28;20214;-96
2022/07/06 07:49:55;;;;;;;8.83;7.77;;;16.80;99.90;;;;;;4998882;28;20234;-96
2022/07/06 07:52:26;;;;;;;9.50;8.17;;;16.70;99.90;;;;;;4998889;28;20217;-96
2022/07/06 07:54:58;;;;;;;9.13;7.40;;;16.70;99.90;;;;;;4999170;28;20213;-96
2022/07/06 07:57:50;;;;;;;9.00;7.90;;;16.70;99.90;;;;;;4998490;28;20292;-96
2022/07/06 08:00:24;;;;;;;9.73;7.63;;;16.70;99.90;;;;;;4998797;28;20214;-96
2022/07/06 08:02:57;;;;;;;10.37;7.43;;;16.70;99.90;;;;;;4999861;28;20209;-96
2022/07/06 08:05:31;;;;;;;8.73;7.67;;;16.70;99.90;;;;;;4999609;28;20265;-96
2022/07/06 08:08:03;;;;;;;9.13;7.53;;;16.70;99.90;;;;;;5000584;28;20631;-96
2022/07/06 08:10:35;;;;;;;10.43;7.97;;;16.70;99.90;;;;;;4998568;28;20237;-95
2022/07/06 08:13:28;;;;;;;8.93;7.13;;;16.80;99.90;;;;;;4998734;28;20206;-96
2022/07/06 08:16:00;;;;;;;9.50;6.83;;;16.70;99.90;;;;;;5000084;28;20222;-95
2022/07/06 08:18:32;;;;;;;9.47;7.33;;;16.70;99.90;;;;;;4998467;28;20563;-96
2022/07/06 08:21:08;;;;;;;10.80;7.20;;;16.70;99.90;;;;;;4998226;28;20246;-96
2022/07/06 08:23:59;;;;;;;10.10;7.10;;;16.70;99.90;;;;;;4998762;28;20261;-96
2022/07/06 08:26:31;;;;;;;8.83;7.03;;;16.70;99.90;;;;;;4998547;28;20756;-96
2022/07/06 08:29:03;;;;;;;9.00;7.10;;;16.70;99.90;;;;;;4998507;28;20218;-96
2022/07/06 08:31:45;;;;;;;10.07;7.40;;;16.80;99.90;;;;;;4997662;28;20296;-96
2022/07/06 08:34:26;;;;;;;9.10;7.77;;;16.80;99.90;;;;;;4998469;28;20294;-96
2022/07/06 08:37:05;;;;;;;11.03;8.00;;;16.70;99.90;;;;;;4998820;28;20243;-96
2022/07/06 08:39:37;;;;;;;10.37;8.20;;;16.70;99.90;;;;;;4981350;28;20217;-96
2022/07/06 08:42:13;;;;;;;8.03;7.23;;;16.70;99.90;;;;;;4997938;28;20603;-96
2022/07/06 08:44:45;;;;;;;10.30;7.27;;;16.60;99.90;;;;;;4999647;28;20288;-96
2022/07/06 08:47:19;;;;;;;9.63;7.63;;;16.50;99.90;;;;;;4999945;28;20214;-96
2022/07/06 08:49:51;;;;;;;9.10;7.43;;;16.50;99.90;;;;;;5000857;28;20214;-96
2022/07/06 08:52:27;;;;;;;9.33;7.93;;;16.50;99.90;;;;;;5013962;28;20198;-96
2022/07/06 08:55:00;;;;;;;9.33;7.40;;;16.50;99.90;;;;;;5019654;28;20240;-96
2022/07/06 08:57:32;;;;;;;9.70;6.93;;;16.50;99.90;;;;;;5020323;28;20213;-96
2022/07/06 09:00:04;;;;;;;8.23;6.57;;;16.50;99.90;;;;;;5020010;28;20229;-96
2022/07/06 09:02:36;;;;;;;8.93;7.43;;;16.50;99.90;;;;;;5020193;28;20245;-96
2022/07/06 09:05:13;;;;;;;7.80;7.00;;;16.40;99.90;;;;;;5019973;28;20281;-96
2022/07/06 09:07:51;;;;;;;8.83;6.87;;;16.40;99.90;;;;;;5019950;28;20221;-96
2022/07/06 09:10:29;;;;;;;8.70;7.23;;;16.50;99.90;;;;;;5002712;28;20257;-96
2022/07/06 09:13:08;;;;;;;7.57;6.70;;;16.50;99.90;;;;;;5016042;28;20237;-96
2022/07/06 09:15:40;;;;;;;10.70;6.90;;;16.50;99.90;;;;;;5010795;28;20260;-96
2022/07/06 09:18:12;;;;;;;8.60;6.67;;;16.50;99.90;;;;;;5012441;28;20198;-96
2022/07/06 09:20:45;;;;;;;8.20;6.67;;;16.50;99.90;;;;;;5005045;28;20225;-96
2022/07/06 09:23:26;;;;;;;9.87;7.97;;;16.50;99.90;;;;;;5007056;28;20301;-96
2022/07/06 09:25:58;;;;;;;10.83;7.30;;;16.50;99.90;;;;;;5006847;28;20352;-96
2022/07/06 09:28:43;;;;;;;11.57;8.30;;;16.40;99.90;;;;;;5012065;28;20241;-96
2022/07/06 09:31:15;;;;;;;8.83;7.20;;;16.30;99.90;;;;;;5020039;28;20269;-96
2022/07/06 09:34:02;;;;;;;9.93;7.57;;;16.30;99.90;;;;;;5017812;28;20202;-96
2022/07/06 09:36:45;;;;;;;9.90;7.97;;;16.30;99.90;;;;;;5018010;28;20221;-96
2022/07/06 09:39:29;;;;;;;9.57;7.47;;;16.40;99.90;;;;;;5020511;28;20202;-94
2022/07/06 09:42:03;;;;;;;8.97;7.63;;;16.50;99.90;;;;;;5019408;28;20369;-96
2022/07/06 09:44:36;;;;;;;9.53;7.43;;;16.40;99.90;;;;;;5009375;28;20272;-96
2022/07/06 09:47:14;;;;;;;10.27;7.83;;;16.30;99.90;;;;;;5003002;28;20261;-96
2022/07/06 09:49:47;;;;;;;9.03;7.37;;;16.30;99.90;;;;;;5003479;28;20345;-96
2022/07/06 09:52:19;;;;;;;10.37;7.50;;;16.30;99.90;;;;;;5005387;28;20207;-96
2022/07/06 09:54:54;;;;;;;11.93;7.80;;;16.30;99.90;;;;;;5002362;28;20273;-96
2022/07/06 09:57:26;;;;;;;7.83;7.07;;;16.40;99.90;;;;;;5001366;28;20241;-96
2022/07/06 10:00:00;;;;;;;10.63;7.57;;;16.40;99.90;;;;;;5001112;28;20241;-96
2022/07/06 10:02:33;;;;;;;10.83;6.77;;;16.30;99.90;;;;;;5001469;28;20214;-96
2022/07/06 10:05:06;;;;;;;10.37;7.47;;;16.40;99.90;;;;;;5003215;28;20210;-96
2022/07/06 10:07:39;;;;;;;7.47;6.47;;;16.50;99.90;;;;;;5004269;28;20230;-96
2022/07/06 10:10:14;;;;;;;8.20;6.87;;;16.50;99.90;;;;;;5002492;28;20213;-96
2022/07/06 10:12:50;;;;;;;9.33;7.00;;;16.40;99.90;;;;;;5000983;28;20206;-96
2022/07/06 10:15:24;;;;;;;8.50;7.53;;;16.40;99.90;;;;;;5001427;28;20266;-96
2022/07/06 10:17:58;;;;;;;7.70;6.53;;;16.30;99.90;;;;;;5000148;28;20287;-96
2022/07/06 10:20:34;;;;;;;10.90;6.70;;;16.30;99.90;;;;;;5000687;28;20236;-96
2022/07/06 10:23:07;;;;;;;8.23;6.33;;;16.30;99.90;;;;;;5000863;28;20206;-96
2022/07/06 10:25:40;;;;;;;7.27;6.47;;;16.20;99.90;;;;;;5000845;28;20233;-96
2022/07/06 10:28:14;;;;;;;8.17;7.10;;;16.40;99.90;;;;;;5000629;28;20721;-96
2022/07/06 10:30:46;;;;;;;8.80;6.93;;;16.40;99.90;;;;;;4999951;28;20269;-96
2022/07/06 10:33:20;;;;;;;7.87;6.70;;;16.40;99.90;;;;;;5000068;28;20210;-96
2022/07/06 10:35:59;;;;;;;8.43;7.17;;;16.40;99.90;;;;;;4983855;28;20226;-96
2022/07/06 10:38:34;;;;;;;8.70;6.30;;;16.40;99.90;;;;;;5000323;28;20221;-96
2022/07/06 10:41:07;;;;;;;7.27;5.90;;;16.40;99.90;;;;;;4999370;28;20210;-96
2022/07/06 10:43:41;;;;;;;7.37;5.30;;;16.40;99.90;;;;;;5000311;28;20207;-96
2022/07/06 10:46:13;;;;;;;8.63;5.60;;;16.30;99.90;;;;;;4999507;28;20206;-96
2022/07/06 10:48:46;;;;;;;8.70;5.70;;;16.30;99.90;;;;;;4999495;28;20317;-96
2022/07/06 10:51:26;;;;;;;7.27;5.80;;;16.30;99.90;;;;;;4999246;28;20230;-96
2022/07/06 10:53:59;;;;;;;7.60;6.17;;;16.40;99.90;;;;;;5000226;28;20221;-96
2022/07/06 10:56:39;;;;;;;8.60;6.13;;;16.30;99.90;;;;;;4998921;28;20211;-96
2022/07/06 10:59:14;;;;;;;8.53;5.70;;;16.30;99.90;;;;;;4999974;28;20276;-96
2022/07/06 11:02:15;;;;;;;6.90;5.83;;;16.30;99.90;;;;;;4998898;28;20580;-96
2022/07/06 11:04:48;;;;;;;8.70;5.80;;;16.30;99.90;;;;;;4999704;28;20210;-96
2022/07/06 11:07:23;;;;;;;7.70;6.33;;;16.40;99.90;;;;;;4999740;28;20354;-96
2022/07/06 11:09:57;;;;;;;8.83;6.10;;;16.30;99.90;;;;;;5000031;28;20221;-96
2022/07/06 11:12:38;;;;;;;7.73;5.70;;;16.30;99.90;;;;;;5000413;28;20289;-96
2022/07/06 11:15:09;;;;;;;6.80;6.10;;;16.30;99.90;;;;;;4999533;28;20206;-96
2022/07/06 11:17:45;;;;;;;9.53;6.13;;;16.30;99.90;;;;;;4999175;28;20214;-96
2022/07/06 11:20:20;;;;;;;7.87;6.43;;;16.30;99.90;;;;;;4998885;28;20311;-96
2022/07/06 11:22:55;;;;;;;8.97;7.03;;;16.30;99.90;;;;;;4999631;28;20228;-96
2022/07/06 11:25:28;;;;;;;7.50;6.20;;;16.40;99.90;;;;;;4999348;28;20222;-96
2022/07/06 11:28:03;;;;;;;6.50;5.90;;;16.30;99.90;;;;;;4999704;28;20237;-96
2022/07/06 11:30:36;;;;;;;6.67;6.07;;;16.30;99.90;;;;;;4999408;28;20210;-96
2022/07/06 11:33:08;;;;;;;6.93;5.33;;;16.30;99.90;;;;;;5000154;28;20222;-96
2022/07/06 11:35:39;;;;;;;6.33;5.27;;;16.30;99.90;;;;;;5000717;28;20218;-96
2022/07/06 11:38:28;;;;;;;5.93;5.17;;;16.30;99.90;;;;;;5001467;28;20265;-96
2022/07/06 11:41:00;;;;;;;7.10;5.10;;;16.30;99.90;;;;;;5005070;28;20221;-96
2022/07/06 11:43:37;;;;;;;6.13;4.60;;;16.30;99.90;;;;;;5017670;28;20226;-96
2022/07/06 11:46:09;;;;;;;7.10;5.07;;;16.30;99.90;;;;;;5017892;28;20205;-96
2022/07/06 11:48:48;;;;;;;6.80;4.27;;;16.20;99.90;;;;;;5017068;28;20258;-96
2022/07/06 11:51:20;;;;;;;7.43;4.77;;;16.30;99.90;;;;;;5010772;28;20210;-96
2022/07/06 11:53:54;;;;;;;5.80;4.40;;;16.20;99.90;;;;;;5011149;28;20298;-96
2022/07/06 11:56:27;;;;;;;4.47;4.07;;;16.20;99.90;;;;;;5005843;28;20216;-96
2022/07/06 11:59:02;;;;;;;7.47;4.33;;;16.20;99.90;;;;;;4999003;28;20229;-96
2022/07/06 12:01:35;;;;;;;4.47;4.03;;;16.20;99.90;;;;;;4981604;28;20241;-95
2022/07/06 12:04:08;;;;;;;7.33;4.80;;;16.10;99.90;;;;;;4998770;28;20292;-95
2022/07/06 12:06:40;;;;;;;4.70;4.30;;;16.10;99.90;;;;;;4998573;28;20218;-95
2022/07/06 12:09:14;;;;;;;4.77;4.27;;;16.20;99.90;;;;;;4998389;28;20292;-96
2022/07/06 12:11:48;;;;;;;4.60;4.10;;;16.20;99.90;;;;;;4997868;28;20206;-96
2022/07/06 12:14:23;;;;;;;4.67;4.00;;;16.00;99.90;;;;;;4998436;28;20217;-96
2022/07/06 12:16:55;;;;;;;4.70;4.17;;;16.00;99.90;;;;;;4998528;28;20218;-95
2022/07/06 12:19:30;;;;;;;5.90;4.20;;;15.90;99.90;;;;;;4998412;28;20207;-96
2022/07/06 12:22:02;;;;;;;5.37;4.03;;;15.90;99.90;;;;;;4997465;28;20210;-96
2022/07/06 12:24:37;;;;;;;4.80;4.00;;;15.90;99.90;;;;;;4997998;28;20214;-96
2022/07/06 12:27:16;;;;;;;7.00;4.47;;;15.80;99.90;;;;;;4997575;28;20206;-96
2022/07/06 12:29:50;;;;;;;4.97;4.47;;;15.80;99.90;;;;;;4998210;28;20225;-95
2022/07/06 12:32:26;;;;;;;6.50;4.70;;;15.80;99.90;;;;;;4997079;28;20225;-95
2022/07/06 12:35:06;;;;;;;4.73;4.20;;;15.90;99.90;;;;;;4997652;28;20214;-96
2022/07/06 12:37:38;;;;;;;5.37;4.10;;;15.90;99.90;;;;;;4997972;28;20209;-96
2022/07/06 12:40:17;;;;;;;6.67;4.53;;;15.80;99.90;;;;;;4979919;28;20256;-96
2022/07/06 12:42:53;;;;;;;4.80;4.30;;;15.90;99.90;;;;;;4983433;28;20213;-95
2022/07/06 12:45:32;;;;;;;4.37;3.90;;;15.90;99.90;;;;;;4998181;28;20211;-96
2022/07/06 12:48:08;;;;;;;6.07;4.20;;;15.90;99.90;;;;;;4997868;28;20260;-96
2022/07/06 12:50:42;;;;;;;5.87;3.90;;;15.80;99.90;;;;;;4996730;28;20213;-96
2022/07/06 12:56:19;;;;;;;5.70;4.17;;;15.80;99.90;;;;;;4997281;28;20683;-96
2022/07/06 12:59:02;;;;;;;5.53;4.97;;;15.90;99.90;;;;;;4999632;28;20681;-96
2022/07/06 13:01:38;;;;;;;4.83;4.27;;;16.00;99.90;;;;;;5001853;28;20265;-96
2022/07/06 13:04:09;;;;;;;6.37;4.10;;;16.00;99.90;;;;;;4997961;28;20209;-96
2022/07/06 13:06:42;;;;;;;6.13;4.37;;;16.00;99.90;;;;;;4998016;28;20218;-96
2022/07/06 13:09:16;;;;;;;4.90;4.37;;;16.00;99.90;;;;;;4997804;28;20241;-96
2022/07/06 13:11:49;;;;;;;4.63;4.20;;;16.00;99.90;;;;;;4997247;28;20206;-95
2022/07/06 13:14:21;;;;;;;6.07;4.17;;;16.00;99.90;;;;;;4997510;28;20206;-96
2022/07/06 13:16:55;;;;;;;6.93;4.53;;;16.10;99.90;;;;;;4998186;28;20210;-96
2022/07/06 13:19:26;;;;;;;5.60;4.90;;;16.10;99.90;;;;;;4997905;28;20222;-96
2022/07/06 13:21:58;;;;;;;4.53;4.10;;;16.10;99.90;;;;;;4996827;28;20237;-96
2022/07/06 13:24:30;;;;;;;5.07;4.23;;;16.20;99.90;;;;;;4999467;28;20207;-96
2022/07/06 13:27:09;;;;;;;5.77;4.43;;;16.20;99.90;;;;;;5001367;28;20245;-96
2022/07/06 13:29:42;;;;;;;5.43;4.93;;;16.10;99.90;;;;;;4982648;28;20241;-96
2022/07/06 13:32:17;;;;;;;4.90;4.50;;;16.20;99.90;;;;;;4998075;28;20222;-96
2022/07/06 13:34:49;;;;;;;6.43;4.90;;;16.20;99.90;;;;;;4997556;28;20235;-95
2022/07/06 13:37:23;;;;;;;7.93;5.23;;;16.40;99.90;;;;;;4997732;28;20253;-96